Portada
METAR-TAF:

METAR-TAF

Aeroports :

Rzeszów, Polònia

latitud: 50-06N, longitud: 022-03E, altitud: 200 m

Observació

L'informe es va fer fa 27 minuts, a les 01:00 UTC
Vent 1 kt amb direcció variable
Temperatura 10°C
Humitat 100%
Pressió 1016 hPa
Visibilitat 10 km o més
sense núvols per sota de 1500 mi sense presència de cumulonimbus.

METAR: EPRZ 150100Z VRB01KT CAVOK 10/10 Q1016

Hora: 03:27 (01:27 UTC)

Pronòstic

L'informe es va fer fa 1 hora i 57 minuts, a les 23:30 UTC
Pronòstic vàlid del 15 a les 00 UTC al 15 a les 24 UTC
Vent 2 kt amb direcció variable
Visibilitat 10 km o més
sense núvols per sota de 1500 mi sense presència de cumulonimbus.
Probabilitat 40% :
Temporalment
l' 15 a les 00 UTC al 15 a les 05 UTC
Visibilitat: 2000 m
boirina

TAF: EPRZ 142330Z 1500/1524 VRB02KT CAVOK PROB40 TEMPO 1500/1505 2000 BR

Observacions i pronòstics meteorològics de més de 4000 aeroports (METAR i TAF).

Les estacions disponibles són els punts grocs i vermells al mapa.

Posi el ratolí al punt desitjat per veure el nom de l'estació.

Feu clic per veure les observacions i els pronòstics meteorològics.

Per canviar el mapa: feu clic els botons verds amb una creu de color negre per apropar; al botó verd amb un guió per allunyar la imatge; o en les fletxes verdes per a mapes adjacents.


METAR-TAF: